createdAt,value
2023-02-05T00:04:24.245Z,101858.50
2023-02-05T00:09:29.081Z,101876.19
2023-02-05T00:14:34.177Z,101875.69
2023-02-05T00:19:37.978Z,101875.50
2023-02-05T00:24:41.899Z,101889.56
2023-02-05T00:29:46.021Z,101885.66
2023-02-05T00:34:50.181Z,101880.09
2023-02-05T00:39:54.040Z,101871.44
2023-02-05T00:44:57.878Z,101873.69
2023-02-05T00:50:01.966Z,101871.09
2023-02-05T00:55:07.301Z,101870.97
2023-02-05T01:00:11.770Z,101885.00
2023-02-05T01:05:15.728Z,101875.34
2023-02-05T01:10:19.660Z,101881.31
2023-02-05T01:15:23.730Z,101886.44
2023-02-05T01:20:27.770Z,101880.09
2023-02-05T01:25:31.993Z,101877.16
2023-02-05T01:30:37.182Z,101887.06
2023-02-05T01:35:42.844Z,101877.34
2023-02-05T01:40:46.797Z,101882.03
2023-02-05T01:46:17.441Z,101880.59
2023-02-05T01:51:22.645Z,101880.25
2023-02-05T01:56:33.162Z,101910.59
2023-02-05T02:01:38.595Z,101909.72
2023-02-05T02:06:42.664Z,101913.44
2023-02-05T02:11:46.625Z,101896.66
2023-02-05T02:16:53.319Z,101902.50
2023-02-05T02:22:21.831Z,101902.13
2023-02-05T02:27:42.439Z,101899.28
2023-02-05T02:32:52.709Z,101903.50
2023-02-05T02:38:05.197Z,101900.88
2023-02-05T02:43:26.195Z,101912.38
2023-02-05T02:48:33.892Z,101879.47
2023-02-05T02:53:45.254Z,101917.16
2023-02-05T02:58:59.334Z,101918.59
2023-02-05T03:04:13.225Z,101925.56
2023-02-05T03:10:06.144Z,101928.94
2023-02-05T03:15:11.898Z,101941.75
2023-02-05T03:20:25.126Z,101921.34
2023-02-05T03:25:31.057Z,101922.38
2023-02-05T03:31:13.433Z,101921.19
2023-02-05T03:36:47.209Z,101946.53
2023-02-05T03:42:37.709Z,101926.78
2023-02-05T03:48:20.386Z,101926.13
2023-02-05T03:53:38.243Z,101929.59
2023-02-05T03:58:50.164Z,101922.34
2023-02-05T04:03:56.226Z,101914.94
2023-02-05T04:09:01.164Z,101922.09
2023-02-05T04:14:07.385Z,101928.03
2023-02-05T04:19:13.122Z,101896.31
2023-02-05T04:24:17.414Z,101923.16
2023-02-05T04:29:22.524Z,101903.66
2023-02-05T04:35:06.668Z,101916.94
2023-02-05T04:40:11.107Z,101930.38
2023-02-05T04:45:16.556Z,101919.59
2023-02-05T04:50:20.359Z,101924.91
2023-02-05T04:55:24.380Z,101899.06
2023-02-05T05:00:28.569Z,101905.16
2023-02-05T05:05:33.829Z,101928.66
2023-02-05T05:10:39.480Z,101933.66
2023-02-05T05:15:43.446Z,101931.34
2023-02-05T05:20:47.471Z,101926.47
2023-02-05T05:25:51.911Z,101919.69
2023-02-05T05:30:56.007Z,101827.97
2023-02-05T05:35:59.819Z,101919.59
2023-02-05T05:41:22.449Z,101906.97
2023-02-05T05:46:27.569Z,101902.69
2023-02-05T05:51:33.195Z,101904.94
2023-02-05T05:56:36.998Z,101865.38
2023-02-05T06:01:40.800Z,101915.31
2023-02-05T06:06:44.709Z,101913.66
2023-02-05T06:11:49.679Z,101908.59
2023-02-05T06:16:55.948Z,101907.97
2023-02-05T06:21:59.621Z,101901.25
2023-02-05T06:27:03.539Z,101819.81
2023-02-05T06:32:08.543Z,101890.25
2023-02-05T06:37:12.331Z,101868.56
2023-02-05T06:42:16.239Z,101889.97
2023-02-05T06:47:20.031Z,101796.94
2023-02-05T06:52:23.994Z,101882.81
2023-02-05T06:57:27.924Z,101894.44
2023-02-05T07:02:31.944Z,101892.56
2023-02-05T07:07:36.182Z,101887.28
2023-02-05T07:12:40.044Z,101887.88
2023-02-05T07:17:43.991Z,101891.88
2023-02-05T07:22:47.830Z,101885.75
2023-02-05T07:27:51.983Z,101891.38
2023-02-05T07:32:56.182Z,101886.72
2023-02-05T07:38:00.098Z,101820.31
2023-02-05T07:43:04.245Z,101886.84
2023-02-05T07:48:08.134Z,101873.00
2023-02-05T07:53:12.012Z,101874.25
2023-02-05T07:58:16.136Z,101851.41
2023-02-05T08:03:20.736Z,101886.78
2023-02-05T08:08:26.303Z,101871.94
2023-02-05T08:13:30.679Z,101875.56
2023-02-05T08:18:35.361Z,101865.72
2023-02-05T08:23:39.139Z,101866.88
2023-02-05T08:28:44.636Z,101861.47
2023-02-05T08:33:51.358Z,101872.69
2023-02-05T08:38:55.339Z,101872.13
2023-02-05T08:43:59.211Z,101890.53
2023-02-05T08:49:03.114Z,101879.50
2023-02-05T08:54:09.986Z,101886.03
2023-02-05T08:59:15.022Z,101890.84
2023-02-05T09:04:21.242Z,101903.97
2023-02-05T09:09:26.105Z,101897.03
2023-02-05T09:14:36.943Z,101895.06
2023-02-05T09:19:42.353Z,101905.28
2023-02-05T09:24:46.299Z,101887.59
2023-02-05T09:29:50.256Z,101897.78
2023-02-05T09:34:54.428Z,101905.53
2023-02-05T09:40:20.920Z,101904.09
2023-02-05T09:45:40.542Z,101908.44
2023-02-05T09:50:44.976Z,101906.72
2023-02-05T09:55:49.591Z,101902.56
2023-02-05T10:01:05.165Z,101902.81
2023-02-05T10:06:22.214Z,101899.50
2023-02-05T10:11:59.146Z,101897.63
2023-02-05T10:17:36.100Z,101899.19
2023-02-05T10:23:07.749Z,101893.13
2023-02-05T10:28:29.942Z,101893.03
2023-02-05T10:33:42.357Z,101894.25
2023-02-05T10:38:47.838Z,101891.38
2023-02-05T10:44:04.411Z,101888.38
2023-02-05T10:49:20.859Z,101893.47
2023-02-05T10:54:30.835Z,101893.91
2023-02-05T10:59:59.660Z,101909.28
2023-02-05T11:05:28.451Z,101901.81
2023-02-05T11:10:36.501Z,101901.91
2023-02-05T11:16:05.669Z,101900.28
2023-02-05T11:21:10.800Z,101916.28
2023-02-05T11:26:21.837Z,101922.59
2023-02-05T11:31:28.561Z,101927.94
2023-02-05T11:36:32.503Z,101916.31
2023-02-05T11:41:58.068Z,101927.28
2023-02-05T11:47:04.622Z,101917.63
2023-02-05T11:52:16.387Z,101923.19
2023-02-05T11:57:23.292Z,101934.53
2023-02-05T12:02:29.255Z,101929.44
2023-02-05T12:07:47.241Z,101934.06
2023-02-05T12:13:06.651Z,101940.91
2023-02-05T12:18:22.631Z,101944.50
2023-02-05T12:24:11.176Z,101932.66
2023-02-05T12:29:32.248Z,101934.66
2023-02-05T12:34:47.673Z,101937.28
2023-02-05T12:40:01.331Z,101929.88
2023-02-05T12:45:30.780Z,101932.59
2023-02-05T12:51:09.624Z,101864.53
2023-02-05T12:56:37.951Z,101928.72
2023-02-05T13:01:52.205Z,101922.97
2023-02-05T13:07:06.436Z,101943.78
2023-02-05T13:12:16.318Z,101936.91
2023-02-05T13:17:31.256Z,101929.38
2023-02-05T13:23:06.197Z,101934.00
2023-02-05T13:28:41.824Z,101931.06
2023-02-05T13:33:46.192Z,101944.53
2023-02-05T13:39:02.627Z,101933.97
2023-02-05T13:44:24.943Z,101929.53
2023-02-05T13:49:38.258Z,101930.47
2023-02-05T13:54:59.825Z,101942.41
2023-02-05T14:00:06.929Z,101933.63
2023-02-05T14:05:16.242Z,101906.59
2023-02-05T14:10:29.096Z,101931.47
2023-02-05T14:15:44.186Z,101937.59
2023-02-05T14:20:48.265Z,101929.03
2023-02-05T14:26:04.639Z,101935.22
2023-02-05T14:31:08.498Z,101942.97
2023-02-05T14:36:18.679Z,101936.88
2023-02-05T14:41:28.076Z,101935.19
2023-02-05T14:46:45.897Z,101915.88
2023-02-05T14:52:00.230Z,101810.28
2023-02-05T14:57:50.122Z,101917.63
2023-02-05T15:03:07.584Z,101922.13
2023-02-05T15:08:21.909Z,101917.63
2023-02-05T15:13:27.183Z,101920.13
2023-02-05T15:18:34.664Z,101920.84
2023-02-05T15:23:49.568Z,101926.09
2023-02-05T15:29:02.555Z,101924.63
2023-02-05T15:34:30.071Z,101906.84
2023-02-05T15:39:56.437Z,101927.97
2023-02-05T15:45:00.367Z,101929.59
2023-02-05T15:50:05.776Z,101909.19
2023-02-05T15:55:15.639Z,101948.28
2023-02-05T16:00:23.316Z,101831.34
2023-02-05T16:05:29.742Z,101931.25
2023-02-05T16:10:35.615Z,101918.19
2023-02-05T16:15:47.797Z,101924.91
2023-02-05T16:20:57.628Z,101921.09
2023-02-05T16:26:16.760Z,101934.50
2023-02-05T16:31:24.537Z,101933.69
2023-02-05T16:36:37.395Z,101943.84
2023-02-05T16:41:44.290Z,101943.84
2023-02-05T16:47:21.030Z,101943.84
2023-02-05T16:52:36.398Z,101955.69
2023-02-05T16:57:40.896Z,101955.72
2023-02-05T17:02:45.680Z,101845.38
2023-02-05T17:08:02.076Z,101871.31
2023-02-05T17:13:08.195Z,101969.19
2023-02-05T17:18:19.657Z,101952.94
2023-02-05T17:23:23.444Z,101959.31
2023-02-05T17:28:30.937Z,101950.03
2023-02-05T17:33:34.767Z,101953.03
2023-02-05T17:38:38.518Z,101941.38
2023-02-05T17:43:42.569Z,101939.03
2023-02-05T17:48:46.442Z,101955.50
2023-02-05T17:53:51.335Z,101958.97
2023-02-05T17:58:56.686Z,101960.00
2023-02-05T18:04:00.377Z,101971.09
2023-02-05T18:09:07.824Z,101959.53
2023-02-05T18:14:14.275Z,101971.66
2023-02-05T18:19:20.984Z,101842.53
2023-02-05T18:24:25.070Z,101957.00
2023-02-05T18:29:29.211Z,101955.28
2023-02-05T18:34:33.384Z,101954.44
2023-02-05T18:39:37.267Z,101948.81
2023-02-05T18:44:41.128Z,101945.97
2023-02-05T18:49:44.895Z,101940.91
2023-02-05T18:54:53.326Z,101930.84
2023-02-05T18:59:57.251Z,101839.47
2023-02-05T19:05:03.339Z,101915.59
2023-02-05T19:10:07.454Z,101884.31
2023-02-05T19:15:11.190Z,101923.78
2023-02-05T19:20:15.058Z,101919.97
2023-02-05T19:25:22.142Z,101925.69
2023-02-05T19:30:26.285Z,101931.81
2023-02-05T19:35:33.088Z,101896.56
2023-02-05T19:40:37.428Z,101915.34
2023-02-05T19:45:41.254Z,101925.16
2023-02-05T19:50:45.286Z,101917.38
2023-02-05T19:55:49.273Z,101913.28
2023-02-05T20:00:53.185Z,101922.41
2023-02-05T20:06:01.762Z,101918.59
2023-02-05T20:11:06.317Z,101925.94
2023-02-05T20:16:14.665Z,101912.50
2023-02-05T20:21:20.101Z,101908.78
2023-02-05T20:26:23.986Z,101900.91
2023-02-05T20:31:38.725Z,101908.00
2023-02-05T20:36:42.415Z,101907.81
2023-02-05T20:41:47.965Z,101889.63
2023-02-05T20:46:51.850Z,101908.91
2023-02-05T20:51:55.922Z,101900.31
2023-02-05T20:56:59.878Z,101893.38
2023-02-05T21:02:04.906Z,101863.03
2023-02-05T21:07:08.828Z,101868.94
2023-02-05T21:12:12.494Z,101747.16
2023-02-05T21:17:16.426Z,101868.63
2023-02-05T21:22:20.156Z,101873.38
2023-02-05T21:27:25.894Z,101864.88
2023-02-05T21:32:31.322Z,101870.66
2023-02-05T21:37:35.363Z,101855.19
2023-02-05T21:42:39.110Z,101857.03
2023-02-05T21:47:43.012Z,101869.72
2023-02-05T21:52:47.012Z,101858.78
2023-02-05T21:57:50.780Z,101807.22
2023-02-05T22:02:54.619Z,101858.41
2023-02-05T22:07:58.529Z,101859.28
2023-02-05T22:13:02.178Z,101843.25
2023-02-05T22:18:06.197Z,101846.06
2023-02-05T22:23:09.998Z,101845.91
2023-02-05T22:28:14.197Z,101810.13
2023-02-05T22:33:18.497Z,101834.34
2023-02-05T22:38:22.186Z,101844.16
2023-02-05T22:43:26.322Z,101838.09
2023-02-05T22:48:30.198Z,101838.84
2023-02-05T22:53:35.162Z,101823.84
2023-02-05T22:58:41.859Z,101836.38
2023-02-05T23:03:48.163Z,101836.47
2023-02-05T23:08:58.013Z,101827.28
2023-02-05T23:14:03.449Z,101825.31
2023-02-05T23:19:10.895Z,101829.56
2023-02-05T23:24:15.431Z,101795.63
2023-02-05T23:29:19.959Z,101820.63
2023-02-05T23:34:24.106Z,101826.84
2023-02-05T23:39:27.987Z,101835.66
2023-02-05T23:44:32.274Z,101833.88
2023-02-05T23:49:36.097Z,101831.75
2023-02-05T23:54:39.845Z,101838.69
2023-02-05T23:59:43.703Z,101818.56
